createdAt,value
2023-03-02T00:14:32.649Z,0.38
2023-03-02T00:34:32.463Z,-0.2
2023-03-02T00:54:32.447Z,-0.41
2023-03-02T01:14:32.421Z,-0.75
2023-03-02T01:34:32.411Z,-0.2
2023-03-02T01:54:32.385Z,-0.01
2023-03-02T02:34:32.359Z,0
2023-03-02T02:54:32.326Z,-0.38
2023-03-02T03:14:32.291Z,-0.85
2023-03-02T03:34:32.283Z,-0.68
2023-03-02T03:54:32.256Z,-1
2023-03-02T04:14:32.237Z,-0.98
2023-03-02T04:34:32.220Z,-0.8
2023-03-02T04:54:32.211Z,-0.68
2023-03-02T05:14:32.185Z,-0.66
2023-03-02T05:34:32.156Z,-0.86
2023-03-02T05:54:32.153Z,-1.06
2023-03-02T06:14:32.138Z,-1.11
2023-03-02T06:34:33.566Z,-1.24
2023-03-02T06:54:32.090Z,-0.75
2023-03-02T07:14:32.078Z,-0.04
2023-03-02T07:34:32.039Z,0.68
2023-03-02T08:14:32.057Z,2.38
2023-03-02T08:34:31.989Z,3.18
2023-03-02T08:54:31.941Z,3.76
2023-03-02T09:14:31.934Z,4.68
2023-03-02T09:34:31.890Z,5.64
2023-03-02T09:54:31.872Z,6.08
2023-03-02T10:14:31.825Z,6.37
2023-03-02T10:34:31.841Z,6.8
2023-03-02T10:54:31.775Z,7.51
2023-03-02T11:14:31.744Z,8.1
2023-03-02T11:34:31.704Z,8.92
2023-03-02T12:14:31.653Z,9.43
2023-03-02T12:34:32.305Z,10.23
2023-03-02T12:54:31.585Z,10.29
2023-03-02T13:14:31.544Z,10.28
2023-03-02T13:34:31.528Z,10.29
2023-03-02T13:54:31.467Z,10.93
2023-03-02T14:14:31.459Z,11.01
2023-03-02T14:34:31.417Z,10.65
2023-03-02T14:54:31.369Z,10.78
2023-03-02T15:14:31.341Z,10.18
2023-03-02T15:34:31.292Z,9.89
2023-03-02T15:54:31.256Z,9.51
2023-03-02T16:14:31.228Z,9.42
2023-03-02T16:34:31.209Z,8.67
2023-03-02T16:54:31.159Z,7.69
2023-03-02T17:14:31.134Z,6.41
2023-03-02T17:34:31.110Z,5.63
2023-03-02T17:54:31.064Z,5.01
2023-03-02T18:14:31.030Z,4.29
2023-03-02T18:34:31.001Z,3.62
2023-03-02T18:54:31.027Z,2.9
2023-03-02T19:14:30.997Z,2.33
2023-03-02T20:14:33.961Z,1.33
2023-03-02T20:34:30.856Z,1.29
2023-03-02T20:54:30.848Z,1.06
2023-03-02T21:14:30.875Z,0.93
2023-03-02T21:54:30.809Z,0.9
2023-03-02T22:34:30.734Z,0.96
2023-03-02T22:54:30.735Z,0.98
2023-03-02T23:14:30.685Z,1.01
2023-03-02T23:34:30.673Z,0.94
2023-03-02T23:54:30.647Z,0.89
